createdAt,value
2023-04-30T00:01:48.775Z,10.70
2023-04-30T00:04:19.011Z,10.74
2023-04-30T00:09:30.732Z,11.02
2023-04-30T00:12:00.599Z,10.93
2023-04-30T00:14:35.835Z,10.86
2023-04-30T00:17:12.644Z,10.80
2023-04-30T00:19:43.438Z,10.79
2023-04-30T00:25:10.063Z,10.49
2023-04-30T00:27:41.105Z,10.31
2023-04-30T00:30:22.282Z,9.87
2023-04-30T00:32:53.152Z,10.43
2023-04-30T00:35:26.940Z,10.42
2023-04-30T00:38:04.099Z,10.71
2023-04-30T00:40:55.493Z,10.37
2023-04-30T00:43:23.798Z,10.32
2023-04-30T00:45:55.692Z,10.10
2023-04-30T00:48:28.905Z,10.39
2023-04-30T00:51:00.719Z,10.62
2023-04-30T00:53:29.750Z,10.31
2023-04-30T00:55:58.331Z,10.35
2023-04-30T00:58:38.402Z,10.11
2023-04-30T01:01:08.907Z,10.49
2023-04-30T01:03:40.133Z,10.62
2023-04-30T01:06:10.652Z,10.64
2023-04-30T01:08:48.654Z,10.80
2023-04-30T01:12:12.069Z,10.87
2023-04-30T01:15:23.170Z,10.69
2023-04-30T01:18:48.375Z,10.34
2023-04-30T01:21:26.238Z,9.94
2023-04-30T01:24:00.444Z,10.02
2023-04-30T01:26:58.450Z,10.45
2023-04-30T01:29:28.223Z,10.58
2023-04-30T01:32:25.686Z,10.28
2023-04-30T01:35:12.600Z,10.40
2023-04-30T01:38:05.270Z,10.23
2023-04-30T01:41:27.746Z,10.23
2023-04-30T01:44:20.556Z,10.11
2023-04-30T01:47:16.688Z,10.00
2023-04-30T01:50:30.741Z,9.81
2023-04-30T01:53:03.324Z,9.73
2023-04-30T01:56:07.857Z,9.86
2023-04-30T01:58:48.708Z,9.89
2023-04-30T02:01:39.084Z,9.66
2023-04-30T02:06:54.531Z,9.41
2023-04-30T02:09:32.268Z,9.52
2023-04-30T02:12:07.817Z,9.65
2023-04-30T02:14:43.857Z,9.55
2023-04-30T02:17:15.231Z,9.39
2023-04-30T02:22:27.461Z,9.24
2023-04-30T02:24:59.971Z,8.93
2023-04-30T02:27:28.270Z,9.17
2023-04-30T02:30:06.271Z,9.15
2023-04-30T02:32:40.328Z,9.06
2023-04-30T02:35:19.713Z,8.93
2023-04-30T02:37:49.830Z,9.12
2023-04-30T02:40:20.857Z,9.06
2023-04-30T02:42:53.696Z,8.99
2023-04-30T02:45:24.968Z,9.17
2023-04-30T02:48:03.135Z,9.33
2023-04-30T02:50:30.954Z,8.95
2023-04-30T02:53:00.401Z,9.18
2023-04-30T02:55:30.815Z,8.90
2023-04-30T02:58:01.181Z,8.79
2023-04-30T03:03:17.199Z,9.04
2023-04-30T03:05:48.142Z,8.99
2023-04-30T03:08:18.757Z,9.02
2023-04-30T03:10:55.214Z,9.23
2023-04-30T03:13:34.445Z,9.33
2023-04-30T03:16:12.972Z,9.41
2023-04-30T03:18:40.925Z,9.12
2023-04-30T03:21:11.656Z,9.25
2023-04-30T03:23:46.697Z,9.27
2023-04-30T03:26:26.495Z,9.08
2023-04-30T03:29:07.407Z,9.11
2023-04-30T03:31:37.833Z,9.36
2023-04-30T03:34:11.490Z,9.47
2023-04-30T03:36:43.597Z,9.60
2023-04-30T03:39:17.154Z,9.60
2023-04-30T03:42:02.425Z,9.84
2023-04-30T03:44:30.252Z,9.92
2023-04-30T03:47:03.150Z,10.10
2023-04-30T03:49:31.116Z,10.17
2023-04-30T03:52:17.413Z,10.21
2023-04-30T03:54:51.186Z,10.21
2023-04-30T04:00:14.221Z,10.03
2023-04-30T04:02:55.753Z,9.95
2023-04-30T04:05:25.949Z,10.17
2023-04-30T04:07:55.081Z,10.10
2023-04-30T04:10:23.002Z,10.29
2023-04-30T04:12:53.373Z,10.37
2023-04-30T04:15:24.747Z,10.31
2023-04-30T04:17:57.725Z,10.34
2023-04-30T04:20:27.430Z,10.28
2023-04-30T04:23:00.819Z,10.39
2023-04-30T04:25:30.916Z,10.41
2023-04-30T04:28:12.754Z,10.38
2023-04-30T04:30:48.318Z,10.38
2023-04-30T04:33:17.556Z,10.41
2023-04-30T04:35:54.726Z,10.28
2023-04-30T04:38:26.713Z,10.11
2023-04-30T04:41:00.317Z,10.24
2023-04-30T04:43:31.370Z,10.18
2023-04-30T04:46:14.435Z,10.28
2023-04-30T04:48:49.603Z,10.43
2023-04-30T04:51:19.628Z,10.49
2023-04-30T04:53:53.426Z,10.52
2023-04-30T04:59:08.648Z,10.49
2023-04-30T05:04:35.774Z,10.58
2023-04-30T05:07:08.993Z,10.63
2023-04-30T05:09:47.069Z,10.82
2023-04-30T05:12:16.955Z,10.80
2023-04-30T05:14:49.700Z,10.83
2023-04-30T05:17:26.700Z,10.85
2023-04-30T05:20:00.590Z,10.82
2023-04-30T05:22:32.070Z,10.84
2023-04-30T05:25:14.986Z,11.16
2023-04-30T05:27:48.299Z,11.33
2023-04-30T05:30:27.893Z,11.38
2023-04-30T05:32:57.875Z,11.49
2023-04-30T05:35:30.471Z,11.53
2023-04-30T05:38:09.008Z,11.58
2023-04-30T05:43:24.037Z,11.53
2023-04-30T05:45:56.842Z,11.48
2023-04-30T05:48:27.817Z,11.67
2023-04-30T05:50:56.961Z,11.64
2023-04-30T05:53:27.996Z,11.69
2023-04-30T05:55:58.107Z,11.78
2023-04-30T05:58:29.166Z,11.60
2023-04-30T06:01:01.643Z,11.93
2023-04-30T06:03:32.773Z,12.07
2023-04-30T06:06:16.538Z,11.96
2023-04-30T06:08:47.971Z,12.05
2023-04-30T06:11:20.383Z,12.15
2023-04-30T06:13:53.006Z,12.17
2023-04-30T06:16:24.138Z,12.28
2023-04-30T06:18:54.293Z,12.31
2023-04-30T06:21:28.513Z,12.23
2023-04-30T06:23:56.953Z,12.55
2023-04-30T06:26:24.927Z,12.59
2023-04-30T06:28:57.557Z,12.58
2023-04-30T06:31:27.455Z,12.65
2023-04-30T06:33:59.562Z,12.52
2023-04-30T06:36:29.877Z,12.59
2023-04-30T06:39:10.527Z,12.95
2023-04-30T06:41:40.295Z,13.00
2023-04-30T06:44:13.630Z,13.25
2023-04-30T06:46:44.085Z,13.14
2023-04-30T06:49:21.894Z,13.35
2023-04-30T06:51:56.501Z,13.49
2023-04-30T06:54:30.142Z,13.55
2023-04-30T06:57:03.095Z,13.72
2023-04-30T06:59:44.897Z,13.88
2023-04-30T07:02:14.991Z,13.86
2023-04-30T07:04:45.396Z,13.89
2023-04-30T07:07:15.712Z,14.03
2023-04-30T07:09:51.524Z,14.38
2023-04-30T07:12:24.875Z,14.29
2023-04-30T07:14:55.591Z,14.36
2023-04-30T07:17:41.124Z,14.50
2023-04-30T07:22:56.164Z,14.43
2023-04-30T07:25:26.147Z,14.29
2023-04-30T07:27:58.048Z,14.39
2023-04-30T07:30:28.529Z,14.28
2023-04-30T07:33:04.554Z,14.23
2023-04-30T07:35:35.712Z,14.34
2023-04-30T07:38:13.372Z,14.45
2023-04-30T07:40:44.925Z,14.53
2023-04-30T07:43:18.959Z,14.48
2023-04-30T07:45:53.954Z,14.66
2023-04-30T07:51:07.097Z,15.00
2023-04-30T07:53:48.629Z,14.82
2023-04-30T07:56:19.753Z,15.12
2023-04-30T07:59:01.035Z,15.19
2023-04-30T08:01:45.100Z,15.19
2023-04-30T08:04:12.917Z,15.41
2023-04-30T08:06:50.007Z,15.44
2023-04-30T08:09:21.418Z,15.83
2023-04-30T08:11:56.194Z,16.12
2023-04-30T08:14:27.508Z,16.03
2023-04-30T08:16:55.203Z,15.89
2023-04-30T08:19:28.049Z,16.21
2023-04-30T08:21:58.512Z,16.11
2023-04-30T08:24:30.225Z,16.51
2023-04-30T08:27:00.103Z,16.32
2023-04-30T08:29:28.502Z,16.30
2023-04-30T08:32:05.831Z,16.39
2023-04-30T08:34:38.753Z,16.47
2023-04-30T08:37:20.731Z,16.43
2023-04-30T08:39:54.178Z,16.38
2023-04-30T08:42:48.258Z,16.57
2023-04-30T08:45:19.770Z,16.77
2023-04-30T08:47:51.915Z,16.55
2023-04-30T08:50:22.442Z,16.42
2023-04-30T08:52:56.505Z,16.64
2023-04-30T08:55:28.417Z,16.61
2023-04-30T08:57:59.590Z,16.77
2023-04-30T09:00:38.445Z,16.64
2023-04-30T09:03:09.019Z,16.65
2023-04-30T09:05:44.537Z,16.91
2023-04-30T09:08:21.741Z,16.60
2023-04-30T09:13:49.025Z,16.96
2023-04-30T09:16:17.331Z,16.83
2023-04-30T09:18:47.829Z,16.86
2023-04-30T09:21:18.482Z,16.94
2023-04-30T09:24:07.509Z,17.27
2023-04-30T09:26:45.730Z,17.28
2023-04-30T09:29:20.199Z,17.36
2023-04-30T09:32:06.171Z,18.03
2023-04-30T09:34:48.371Z,17.68
2023-04-30T09:37:20.702Z,18.35
2023-04-30T09:40:00.872Z,18.11
2023-04-30T09:42:31.187Z,18.10
2023-04-30T09:47:45.738Z,18.89
2023-04-30T09:50:18.113Z,18.69
2023-04-30T09:53:08.739Z,18.78
2023-04-30T09:55:47.521Z,18.76
2023-04-30T09:58:21.007Z,18.17
2023-04-30T10:01:10.835Z,18.12
2023-04-30T10:03:44.465Z,18.20
2023-04-30T10:06:25.072Z,18.28
2023-04-30T10:09:00.916Z,18.09
2023-04-30T10:11:36.302Z,18.37
2023-04-30T10:14:17.990Z,17.85
2023-04-30T10:17:00.111Z,17.79
2023-04-30T10:19:35.550Z,18.08
2023-04-30T10:22:07.312Z,17.98
2023-04-30T10:24:41.112Z,18.72
2023-04-30T10:27:19.469Z,19.20
2023-04-30T10:29:49.838Z,19.19
2023-04-30T10:35:27.905Z,18.65
2023-04-30T10:38:27.672Z,18.27
2023-04-30T10:41:10.218Z,18.64
2023-04-30T10:43:41.102Z,18.84
2023-04-30T10:46:10.192Z,18.58
2023-04-30T10:48:40.677Z,18.20
2023-04-30T10:51:10.386Z,17.99
2023-04-30T10:56:38.927Z,18.29
2023-04-30T10:59:19.818Z,18.45
2023-04-30T11:02:04.647Z,18.25
2023-04-30T11:07:20.806Z,18.23
2023-04-30T11:09:53.220Z,18.51
2023-04-30T11:12:41.997Z,18.18
2023-04-30T11:15:26.694Z,18.14
2023-04-30T11:18:02.662Z,18.70
2023-04-30T11:20:32.904Z,18.50
2023-04-30T11:23:25.296Z,18.89
2023-04-30T11:26:05.974Z,19.04
2023-04-30T11:28:50.994Z,19.70
2023-04-30T11:31:22.743Z,19.60
2023-04-30T11:33:56.568Z,19.43
2023-04-30T11:36:33.032Z,20.52
2023-04-30T11:39:19.897Z,20.75
2023-04-30T11:41:57.207Z,21.02
2023-04-30T11:44:37.808Z,20.77
2023-04-30T11:47:11.939Z,21.31
2023-04-30T11:49:47.153Z,21.48
2023-04-30T11:52:17.574Z,21.05
2023-04-30T11:54:45.597Z,21.43
2023-04-30T11:57:16.846Z,21.62
2023-04-30T11:59:50.464Z,21.11
2023-04-30T12:02:24.898Z,21.85
2023-04-30T12:04:54.039Z,19.87
2023-04-30T12:07:30.863Z,20.88
2023-04-30T12:10:11.254Z,21.10
2023-04-30T12:12:41.844Z,20.06
2023-04-30T12:15:27.355Z,20.49
2023-04-30T12:18:15.829Z,21.05
2023-04-30T12:20:48.303Z,20.56
2023-04-30T12:23:18.771Z,21.03
2023-04-30T12:25:50.308Z,21.81
2023-04-30T12:28:27.995Z,21.86
2023-04-30T12:30:59.699Z,21.86
2023-04-30T12:33:37.083Z,21.71
2023-04-30T12:36:35.620Z,20.82
2023-04-30T12:39:13.383Z,20.10
2023-04-30T12:41:51.521Z,20.11
2023-04-30T12:44:26.992Z,20.71
2023-04-30T12:47:00.867Z,21.01
2023-04-30T12:49:44.165Z,20.68
2023-04-30T12:52:15.983Z,20.37
2023-04-30T12:55:11.350Z,20.74
2023-04-30T12:57:41.096Z,20.54
2023-04-30T13:00:19.162Z,19.92
2023-04-30T13:02:52.491Z,19.46
2023-04-30T13:05:27.768Z,19.35
2023-04-30T13:08:13.515Z,19.60
2023-04-30T13:10:46.511Z,19.08
2023-04-30T13:16:09.316Z,19.81
2023-04-30T13:18:47.240Z,21.52
2023-04-30T13:21:21.188Z,22.21
2023-04-30T13:23:55.301Z,22.49
2023-04-30T13:29:16.431Z,20.83
2023-04-30T13:32:05.477Z,22.78
2023-04-30T13:34:35.637Z,25.45
2023-04-30T13:39:53.649Z,28.00
2023-04-30T13:42:24.997Z,30.98
2023-04-30T13:44:58.121Z,30.65
2023-04-30T13:47:29.225Z,30.94
2023-04-30T13:50:05.312Z,28.84
2023-04-30T13:52:47.832Z,29.44
2023-04-30T13:58:11.243Z,31.43
2023-04-30T14:00:41.907Z,31.75
2023-04-30T14:03:24.595Z,32.35
2023-04-30T14:05:56.111Z,33.10
2023-04-30T14:08:26.740Z,32.18
2023-04-30T14:10:59.344Z,31.43
2023-04-30T14:13:28.448Z,31.15
2023-04-30T14:15:58.320Z,29.12
2023-04-30T14:18:28.943Z,29.83
2023-04-30T14:20:58.133Z,32.16
2023-04-30T14:23:35.116Z,34.32
2023-04-30T14:26:13.688Z,32.93
2023-04-30T14:28:49.752Z,32.95
2023-04-30T14:31:30.213Z,32.80
2023-04-30T14:34:03.889Z,32.47
2023-04-30T14:36:32.016Z,31.90
2023-04-30T14:39:15.937Z,31.16
2023-04-30T14:41:46.416Z,32.54
2023-04-30T14:44:17.925Z,31.41
2023-04-30T14:46:48.028Z,31.41
2023-04-30T14:52:01.820Z,30.98
2023-04-30T14:54:32.250Z,28.57
2023-04-30T14:57:04.547Z,27.08
2023-04-30T14:59:33.690Z,25.48
2023-04-30T15:02:03.467Z,23.33
2023-04-30T15:04:47.227Z,22.39
2023-04-30T15:07:16.315Z,21.49
2023-04-30T15:09:55.269Z,20.70
2023-04-30T15:12:30.408Z,20.97
2023-04-30T15:14:58.180Z,20.26
2023-04-30T15:17:29.837Z,21.56
2023-04-30T15:20:09.692Z,21.50
2023-04-30T15:22:42.211Z,21.60
2023-04-30T15:25:14.173Z,22.53
2023-04-30T15:27:42.288Z,22.07
2023-04-30T15:30:22.570Z,22.21
2023-04-30T15:32:52.865Z,21.20
2023-04-30T15:35:23.713Z,21.27
2023-04-30T15:37:55.770Z,22.26
2023-04-30T15:40:24.806Z,22.18
2023-04-30T15:42:56.249Z,23.19
2023-04-30T15:45:27.935Z,24.34
2023-04-30T15:48:03.999Z,25.07
2023-04-30T15:50:37.854Z,26.10
2023-04-30T15:53:15.351Z,27.86
2023-04-30T15:55:52.938Z,24.59
2023-04-30T15:58:31.399Z,24.61
2023-04-30T16:01:01.523Z,24.35
2023-04-30T16:03:29.720Z,21.86
2023-04-30T16:06:01.769Z,20.41
2023-04-30T16:08:32.478Z,20.42
2023-04-30T16:11:01.733Z,20.21
2023-04-30T16:13:31.813Z,19.84
2023-04-30T16:16:07.315Z,19.63
2023-04-30T16:18:46.380Z,19.42
2023-04-30T16:21:22.320Z,19.40
2023-04-30T16:23:56.992Z,19.34
2023-04-30T16:26:25.712Z,19.57
2023-04-30T16:28:57.183Z,19.37
2023-04-30T16:31:33.828Z,19.70
2023-04-30T16:34:15.658Z,19.81
2023-04-30T16:36:51.755Z,19.64
2023-04-30T16:39:19.550Z,19.09
2023-04-30T16:41:50.877Z,19.25
2023-04-30T16:44:24.127Z,19.27
2023-04-30T16:46:57.246Z,19.14
2023-04-30T16:49:27.503Z,19.04
2023-04-30T16:51:58.347Z,18.76
2023-04-30T16:54:28.048Z,18.44
2023-04-30T16:56:58.608Z,18.45
2023-04-30T17:02:10.900Z,17.68
2023-04-30T17:04:42.277Z,17.86
2023-04-30T17:07:16.123Z,17.76
2023-04-30T17:09:44.521Z,17.69
2023-04-30T17:12:15.119Z,17.62
2023-04-30T17:14:47.883Z,17.20
2023-04-30T17:17:18.790Z,17.05
2023-04-30T17:22:31.587Z,16.85
2023-04-30T17:25:19.165Z,16.73
2023-04-30T17:27:57.004Z,16.47
2023-04-30T17:30:31.077Z,16.21
2023-04-30T17:33:02.277Z,16.26
2023-04-30T17:35:30.953Z,16.18
2023-04-30T17:38:01.679Z,16.09
2023-04-30T17:40:43.896Z,16.07
2023-04-30T17:43:11.792Z,15.92
2023-04-30T17:45:46.357Z,15.83
2023-04-30T17:48:24.044Z,15.86
2023-04-30T17:50:56.684Z,15.59
2023-04-30T17:53:28.654Z,15.50
2023-04-30T17:56:12.312Z,15.06
2023-04-30T17:58:42.694Z,14.60
2023-04-30T18:01:16.276Z,14.53
2023-04-30T18:03:44.418Z,14.51
2023-04-30T18:09:01.504Z,14.47
2023-04-30T18:11:30.165Z,14.14
2023-04-30T18:14:00.370Z,14.07
2023-04-30T18:16:30.903Z,14.10
2023-04-30T18:19:10.230Z,14.01
2023-04-30T18:21:40.411Z,13.73
2023-04-30T18:24:16.301Z,13.75
2023-04-30T18:26:46.772Z,13.68
2023-04-30T18:29:17.905Z,13.64
2023-04-30T18:31:55.803Z,13.61
2023-04-30T18:34:28.418Z,13.46
2023-04-30T18:36:58.988Z,13.21
2023-04-30T18:39:31.988Z,13.12
2023-04-30T18:42:00.235Z,13.05
2023-04-30T18:44:40.189Z,12.81
2023-04-30T18:47:11.100Z,12.69
2023-04-30T18:49:44.019Z,12.62
2023-04-30T18:52:13.063Z,12.75
2023-04-30T18:54:47.362Z,12.95
2023-04-30T18:57:20.721Z,13.18
2023-04-30T19:00:05.449Z,13.23
2023-04-30T19:02:45.207Z,13.43
2023-04-30T19:05:22.714Z,13.38
2023-04-30T19:07:52.803Z,13.54
2023-04-30T19:10:26.717Z,13.60
2023-04-30T19:12:57.068Z,13.53
2023-04-30T19:15:31.964Z,13.67
2023-04-30T19:18:04.066Z,13.61
2023-04-30T19:20:34.969Z,13.69
2023-04-30T19:23:11.773Z,13.71
2023-04-30T19:25:42.438Z,13.88
2023-04-30T19:28:18.117Z,14.17
2023-04-30T19:30:46.186Z,14.52
2023-04-30T19:33:17.619Z,14.47
2023-04-30T19:35:49.532Z,14.44
2023-04-30T19:38:26.992Z,14.38
2023-04-30T19:40:58.026Z,14.35
2023-04-30T19:43:33.666Z,14.26
2023-04-30T19:46:12.128Z,14.27
2023-04-30T19:48:49.714Z,14.61
2023-04-30T19:51:30.754Z,14.52
2023-04-30T19:53:59.541Z,14.42
2023-04-30T19:56:29.616Z,14.26
2023-04-30T19:59:13.502Z,14.36
2023-04-30T20:01:56.121Z,14.41
2023-04-30T20:04:36.914Z,14.56
2023-04-30T20:09:53.830Z,14.66
2023-04-30T20:12:25.021Z,14.71
2023-04-30T20:14:53.740Z,14.68
2023-04-30T20:17:24.975Z,14.47
2023-04-30T20:19:56.894Z,14.30
2023-04-30T20:22:27.040Z,14.05
2023-04-30T20:24:59.374Z,14.09
2023-04-30T20:30:12.916Z,14.02
2023-04-30T20:32:43.254Z,13.72
2023-04-30T20:35:17.257Z,13.68
2023-04-30T20:37:47.290Z,13.82
2023-04-30T20:40:21.604Z,14.11
2023-04-30T20:42:52.079Z,13.89
2023-04-30T20:45:23.242Z,14.09
2023-04-30T20:48:00.674Z,13.66
2023-04-30T20:50:30.376Z,13.54
2023-04-30T20:52:59.394Z,13.48
2023-04-30T20:55:33.062Z,13.20
2023-04-30T20:58:01.455Z,12.89
2023-04-30T21:03:11.538Z,13.58
2023-04-30T21:05:43.346Z,13.24
2023-04-30T21:08:14.901Z,13.08
2023-04-30T21:10:45.679Z,13.07
2023-04-30T21:13:19.342Z,12.83
2023-04-30T21:15:53.265Z,12.36
2023-04-30T21:18:26.489Z,11.77
2023-04-30T21:20:56.855Z,11.64
2023-04-30T21:23:26.891Z,11.93
2023-04-30T21:26:01.541Z,11.98
2023-04-30T21:28:33.752Z,11.79
2023-04-30T21:31:12.924Z,11.50
2023-04-30T21:33:50.506Z,12.41
2023-04-30T21:36:22.090Z,12.33
2023-04-30T21:38:53.656Z,12.30
2023-04-30T21:41:24.717Z,12.02
2023-04-30T21:44:11.228Z,11.91
2023-04-30T21:46:44.462Z,11.73
2023-04-30T21:49:22.205Z,11.78
2023-04-30T21:54:36.726Z,11.56
2023-04-30T21:57:07.241Z,11.45
2023-04-30T21:59:48.558Z,11.48
2023-04-30T22:02:32.587Z,11.69
2023-04-30T22:05:12.026Z,11.73
2023-04-30T22:07:44.327Z,11.50
2023-04-30T22:10:16.645Z,11.96
2023-04-30T22:12:47.460Z,12.01
2023-04-30T22:15:47.627Z,11.84
2023-04-30T22:18:31.953Z,11.28
2023-04-30T22:21:02.639Z,11.28
2023-04-30T22:23:32.847Z,11.26
2023-04-30T22:26:01.388Z,11.21
2023-04-30T22:28:29.712Z,11.11
2023-04-30T22:31:03.290Z,10.91
2023-04-30T22:33:47.395Z,10.65
2023-04-30T22:36:21.561Z,10.77
2023-04-30T22:38:59.546Z,10.90
2023-04-30T22:41:29.624Z,11.05
2023-04-30T22:44:02.253Z,10.63
2023-04-30T22:46:36.917Z,10.54
2023-04-30T22:49:12.453Z,10.51
2023-04-30T22:51:51.456Z,10.52
2023-04-30T22:54:22.287Z,10.54
2023-04-30T22:56:54.128Z,10.46
2023-04-30T22:59:24.398Z,10.40
2023-04-30T23:02:02.150Z,10.25
2023-04-30T23:07:32.731Z,9.99
2023-04-30T23:10:12.521Z,9.97
2023-04-30T23:12:42.593Z,9.92
2023-04-30T23:15:13.898Z,9.93
2023-04-30T23:17:44.615Z,9.94
2023-04-30T23:20:15.053Z,9.87
2023-04-30T23:22:45.594Z,9.65
2023-04-30T23:25:17.315Z,9.75
2023-04-30T23:27:48.380Z,9.88
2023-04-30T23:30:18.010Z,9.76
2023-04-30T23:32:47.894Z,9.68
2023-04-30T23:35:27.073Z,9.61
2023-04-30T23:37:57.308Z,9.57
2023-04-30T23:40:28.393Z,9.52
2023-04-30T23:42:59.734Z,9.49
2023-04-30T23:45:32.304Z,9.43
2023-04-30T23:48:00.759Z,9.47
2023-04-30T23:50:30.932Z,9.67
2023-04-30T23:53:02.457Z,9.63
2023-04-30T23:55:42.501Z,9.63
2023-04-30T23:58:16.290Z,9.45
